sensor_id;sensor_type;location;lat;lon;timestamp;P1;durP1;ratioP1;P2;durP2;ratioP2
12110;SDS011;6119;52.372;8.990;2023-02-08T00:02:37;16.03;;;9.83;;
12110;SDS011;6119;52.372;8.990;2023-02-08T00:05:24;16.80;;;10.37;;
12110;SDS011;6119;52.372;8.990;2023-02-08T00:08:10;14.40;;;8.83;;
12110;SDS011;6119;52.372;8.990;2023-02-08T00:10:57;15.30;;;9.73;;
12110;SDS011;6119;52.372;8.990;2023-02-08T00:13:44;14.77;;;9.67;;
12110;SDS011;6119;52.372;8.990;2023-02-08T00:16:32;18.77;;;10.70;;
12110;SDS011;6119;52.372;8.990;2023-02-08T00:19:18;17.20;;;10.67;;
12110;SDS011;6119;52.372;8.990;2023-02-08T00:22:05;17.83;;;10.97;;
12110;SDS011;6119;52.372;8.990;2023-02-08T00:24:51;17.23;;;10.87;;
12110;SDS011;6119;52.372;8.990;2023-02-08T00:27:38;20.27;;;11.40;;
12110;SDS011;6119;52.372;8.990;2023-02-08T00:30:24;16.83;;;11.10;;
12110;SDS011;6119;52.372;8.990;2023-02-08T00:33:13;19.57;;;11.57;;
12110;SDS011;6119;52.372;8.990;2023-02-08T00:36:00;17.43;;;11.60;;
12110;SDS011;6119;52.372;8.990;2023-02-08T00:38:47;18.60;;;11.43;;
12110;SDS011;6119;52.372;8.990;2023-02-08T00:41:34;17.60;;;10.70;;
12110;SDS011;6119;52.372;8.990;2023-02-08T00:44:20;17.73;;;10.87;;
12110;SDS011;6119;52.372;8.990;2023-02-08T00:47:06;18.90;;;10.80;;
12110;SDS011;6119;52.372;8.990;2023-02-08T00:49:55;18.10;;;10.03;;
12110;SDS011;6119;52.372;8.990;2023-02-08T00:52:41;13.37;;;9.43;;
12110;SDS011;6119;52.372;8.990;2023-02-08T00:55:28;14.00;;;9.27;;
12110;SDS011;6119;52.372;8.990;2023-02-08T00:58:14;14.13;;;9.67;;
12110;SDS011;6119;52.372;8.990;2023-02-08T01:01:01;13.73;;;9.23;;
12110;SDS011;6119;52.372;8.990;2023-02-08T01:03:49;14.87;;;9.33;;
12110;SDS011;6119;52.372;8.990;2023-02-08T01:06:36;15.40;;;8.67;;
12110;SDS011;6119;52.372;8.990;2023-02-08T01:09:23;13.53;;;8.80;;
12110;SDS011;6119;52.372;8.990;2023-02-08T01:12:10;13.80;;;8.20;;
12110;SDS011;6119;52.372;8.990;2023-02-08T01:14:56;13.83;;;9.10;;
12110;SDS011;6119;52.372;8.990;2023-02-08T01:17:43;11.97;;;7.93;;
12110;SDS011;6119;52.372;8.990;2023-02-08T01:20:29;16.40;;;9.57;;
12110;SDS011;6119;52.372;8.990;2023-02-08T01:23:17;12.87;;;8.83;;
12110;SDS011;6119;52.372;8.990;2023-02-08T01:26:04;14.23;;;8.97;;
12110;SDS011;6119;52.372;8.990;2023-02-08T01:28:52;14.80;;;9.07;;
12110;SDS011;6119;52.372;8.990;2023-02-08T01:31:40;12.13;;;8.57;;
12110;SDS011;6119;52.372;8.990;2023-02-08T01:34:27;14.20;;;9.23;;
12110;SDS011;6119;52.372;8.990;2023-02-08T01:37:14;15.13;;;9.40;;
12110;SDS011;6119;52.372;8.990;2023-02-08T01:40:02;15.23;;;9.60;;
12110;SDS011;6119;52.372;8.990;2023-02-08T01:42:49;11.47;;;8.93;;
12110;SDS011;6119;52.372;8.990;2023-02-08T01:45:36;13.73;;;8.80;;
12110;SDS011;6119;52.372;8.990;2023-02-08T01:48:23;14.07;;;9.10;;
12110;SDS011;6119;52.372;8.990;2023-02-08T01:51:12;13.07;;;8.90;;
12110;SDS011;6119;52.372;8.990;2023-02-08T01:54:02;13.60;;;8.30;;
12110;SDS011;6119;52.372;8.990;2023-02-08T01:56:53;12.53;;;8.77;;
12110;SDS011;6119;52.372;8.990;2023-02-08T01:59:42;12.67;;;8.60;;
12110;SDS011;6119;52.372;8.990;2023-02-08T02:02:32;15.27;;;9.10;;
12110;SDS011;6119;52.372;8.990;2023-02-08T02:05:20;12.90;;;8.23;;
12110;SDS011;6119;52.372;8.990;2023-02-08T02:08:10;13.87;;;8.50;;
12110;SDS011;6119;52.372;8.990;2023-02-08T02:10:58;12.83;;;7.90;;
12110;SDS011;6119;52.372;8.990;2023-02-08T02:13:46;14.23;;;7.80;;
12110;SDS011;6119;52.372;8.990;2023-02-08T02:16:34;11.70;;;7.53;;
12110;SDS011;6119;52.372;8.990;2023-02-08T02:19:30;10.47;;;7.00;;
12110;SDS011;6119;52.372;8.990;2023-02-08T02:32:39;14.03;;;7.67;;
12110;SDS011;6119;52.372;8.990;2023-02-08T02:35:40;12.80;;;7.37;;
12110;SDS011;6119;52.372;8.990;2023-02-08T02:38:36;10.97;;;6.70;;
12110;SDS011;6119;52.372;8.990;2023-02-08T02:41:32;12.70;;;7.57;;
12110;SDS011;6119;52.372;8.990;2023-02-08T02:44:45;11.90;;;7.67;;
12110;SDS011;6119;52.372;8.990;2023-02-08T02:50:35;13.23;;;7.87;;
12110;SDS011;6119;52.372;8.990;2023-02-08T02:53:27;9.87;;;6.57;;
12110;SDS011;6119;52.372;8.990;2023-02-08T02:56:20;10.93;;;7.17;;
12110;SDS011;6119;52.372;8.990;2023-02-08T02:59:10;12.77;;;7.63;;
12110;SDS011;6119;52.372;8.990;2023-02-08T03:01:59;12.47;;;8.13;;
12110;SDS011;6119;52.372;8.990;2023-02-08T03:04:50;11.37;;;6.57;;
12110;SDS011;6119;52.372;8.990;2023-02-08T03:07:44;10.13;;;6.80;;
12110;SDS011;6119;52.372;8.990;2023-02-08T03:10:46;12.80;;;7.97;;
12110;SDS011;6119;52.372;8.990;2023-02-08T03:13:42;12.73;;;7.33;;
12110;SDS011;6119;52.372;8.990;2023-02-08T03:17:01;13.37;;;7.90;;
12110;SDS011;6119;52.372;8.990;2023-02-08T03:20:01;16.10;;;7.70;;
12110;SDS011;6119;52.372;8.990;2023-02-08T03:22:55;11.93;;;7.60;;
12110;SDS011;6119;52.372;8.990;2023-02-08T03:25:48;13.80;;;7.70;;
12110;SDS011;6119;52.372;8.990;2023-02-08T03:28:38;11.20;;;7.67;;
12110;SDS011;6119;52.372;8.990;2023-02-08T03:31:32;10.80;;;7.53;;
12110;SDS011;6119;52.372;8.990;2023-02-08T03:34:26;11.27;;;7.10;;
12110;SDS011;6119;52.372;8.990;2023-02-08T03:37:20;10.97;;;7.07;;
12110;SDS011;6119;52.372;8.990;2023-02-08T03:40:10;11.33;;;6.87;;
12110;SDS011;6119;52.372;8.990;2023-02-08T03:43:03;12.43;;;7.63;;
12110;SDS011;6119;52.372;8.990;2023-02-08T03:45:57;11.53;;;7.40;;
12110;SDS011;6119;52.372;8.990;2023-02-08T03:48:50;10.30;;;6.93;;
12110;SDS011;6119;52.372;8.990;2023-02-08T03:51:40;12.53;;;7.73;;
12110;SDS011;6119;52.372;8.990;2023-02-08T03:54:30;12.10;;;7.30;;
12110;SDS011;6119;52.372;8.990;2023-02-08T03:57:21;12.17;;;7.17;;
12110;SDS011;6119;52.372;8.990;2023-02-08T04:00:11;10.93;;;6.53;;
12110;SDS011;6119;52.372;8.990;2023-02-08T04:03:01;10.97;;;7.53;;
12110;SDS011;6119;52.372;8.990;2023-02-08T04:05:51;10.10;;;7.40;;
12110;SDS011;6119;52.372;8.990;2023-02-08T04:08:39;10.67;;;7.10;;
12110;SDS011;6119;52.372;8.990;2023-02-08T04:11:26;12.23;;;7.27;;
12110;SDS011;6119;52.372;8.990;2023-02-08T04:14:13;12.27;;;7.53;;
12110;SDS011;6119;52.372;8.990;2023-02-08T04:17:00;11.37;;;6.47;;
12110;SDS011;6119;52.372;8.990;2023-02-08T04:19:47;12.47;;;7.50;;
12110;SDS011;6119;52.372;8.990;2023-02-08T04:22:33;12.90;;;7.13;;
12110;SDS011;6119;52.372;8.990;2023-02-08T04:25:19;12.97;;;6.73;;
12110;SDS011;6119;52.372;8.990;2023-02-08T04:28:08;10.93;;;7.77;;
12110;SDS011;6119;52.372;8.990;2023-02-08T04:30:54;11.40;;;7.53;;
12110;SDS011;6119;52.372;8.990;2023-02-08T04:33:42;13.80;;;6.80;;
12110;SDS011;6119;52.372;8.990;2023-02-08T04:36:28;13.80;;;7.23;;
12110;SDS011;6119;52.372;8.990;2023-02-08T04:39:15;11.67;;;7.47;;
12110;SDS011;6119;52.372;8.990;2023-02-08T04:42:01;11.43;;;6.23;;
12110;SDS011;6119;52.372;8.990;2023-02-08T04:44:49;11.57;;;7.27;;
12110;SDS011;6119;52.372;8.990;2023-02-08T04:47:35;9.63;;;7.20;;
12110;SDS011;6119;52.372;8.990;2023-02-08T04:50:22;9.20;;;6.63;;
12110;SDS011;6119;52.372;8.990;2023-02-08T04:53:09;11.73;;;7.13;;
12110;SDS011;6119;52.372;8.990;2023-02-08T04:55:55;11.23;;;7.63;;
12110;SDS011;6119;52.372;8.990;2023-02-08T04:58:42;10.87;;;6.73;;
12110;SDS011;6119;52.372;8.990;2023-02-08T05:01:29;12.60;;;6.57;;
12110;SDS011;6119;52.372;8.990;2023-02-08T05:04:16;11.60;;;7.40;;
12110;SDS011;6119;52.372;8.990;2023-02-08T05:07:03;13.38;;;9.20;;
12110;SDS011;6119;52.372;8.990;2023-02-08T05:09:49;10.73;;;7.33;;
12110;SDS011;6119;52.372;8.990;2023-02-08T05:12:35;10.83;;;7.80;;
12110;SDS011;6119;52.372;8.990;2023-02-08T05:15:22;10.83;;;6.60;;
12110;SDS011;6119;52.372;8.990;2023-02-08T05:18:10;15.17;;;7.60;;
12110;SDS011;6119;52.372;8.990;2023-02-08T05:20:56;9.97;;;6.70;;
12110;SDS011;6119;52.372;8.990;2023-02-08T05:23:45;10.57;;;7.00;;
12110;SDS011;6119;52.372;8.990;2023-02-08T05:26:31;12.13;;;6.90;;
12110;SDS011;6119;52.372;8.990;2023-02-08T05:29:18;8.43;;;6.07;;
12110;SDS011;6119;52.372;8.990;2023-02-08T05:32:04;12.27;;;7.33;;
12110;SDS011;6119;52.372;8.990;2023-02-08T05:34:52;10.03;;;6.60;;
12110;SDS011;6119;52.372;8.990;2023-02-08T05:37:39;10.80;;;7.63;;
12110;SDS011;6119;52.372;8.990;2023-02-08T05:40:25;13.23;;;7.23;;
12110;SDS011;6119;52.372;8.990;2023-02-08T05:43:12;13.47;;;8.03;;
12110;SDS011;6119;52.372;8.990;2023-02-08T05:45:58;11.83;;;7.60;;
12110;SDS011;6119;52.372;8.990;2023-02-08T05:48:45;10.77;;;7.27;;
12110;SDS011;6119;52.372;8.990;2023-02-08T05:51:33;13.33;;;7.57;;
12110;SDS011;6119;52.372;8.990;2023-02-08T05:54:20;10.93;;;7.13;;
12110;SDS011;6119;52.372;8.990;2023-02-08T05:57:06;16.93;;;7.13;;
12110;SDS011;6119;52.372;8.990;2023-02-08T05:59:53;11.50;;;6.63;;
12110;SDS011;6119;52.372;8.990;2023-02-08T06:02:39;11.57;;;7.43;;
12110;SDS011;6119;52.372;8.990;2023-02-08T06:05:26;11.80;;;7.40;;
12110;SDS011;6119;52.372;8.990;2023-02-08T06:08:14;12.07;;;7.57;;
12110;SDS011;6119;52.372;8.990;2023-02-08T06:11:01;12.17;;;7.80;;
12110;SDS011;6119;52.372;8.990;2023-02-08T06:13:47;10.03;;;7.17;;
12110;SDS011;6119;52.372;8.990;2023-02-08T06:16:34;13.20;;;7.77;;
12110;SDS011;6119;52.372;8.990;2023-02-08T06:19:21;10.63;;;6.83;;
12110;SDS011;6119;52.372;8.990;2023-02-08T06:22:07;11.97;;;7.67;;
12110;SDS011;6119;52.372;8.990;2023-02-08T06:24:55;10.77;;;7.43;;
12110;SDS011;6119;52.372;8.990;2023-02-08T06:27:41;14.83;;;8.83;;
12110;SDS011;6119;52.372;8.990;2023-02-08T06:30:28;17.23;;;8.33;;
12110;SDS011;6119;52.372;8.990;2023-02-08T06:33:15;12.70;;;7.47;;
12110;SDS011;6119;52.372;8.990;2023-02-08T06:36:02;12.17;;;8.00;;
12110;SDS011;6119;52.372;8.990;2023-02-08T06:38:48;15.77;;;7.33;;
12110;SDS011;6119;52.372;8.990;2023-02-08T06:41:43;12.57;;;7.50;;
12110;SDS011;6119;52.372;8.990;2023-02-08T06:44:29;11.13;;;6.97;;
12110;SDS011;6119;52.372;8.990;2023-02-08T06:47:16;9.87;;;6.43;;
12110;SDS011;6119;52.372;8.990;2023-02-08T06:50:02;11.10;;;7.27;;
12110;SDS011;6119;52.372;8.990;2023-02-08T06:52:50;11.83;;;7.43;;
12110;SDS011;6119;52.372;8.990;2023-02-08T06:55:36;14.07;;;8.20;;
12110;SDS011;6119;52.372;8.990;2023-02-08T06:58:24;14.93;;;7.87;;
12110;SDS011;6119;52.372;8.990;2023-02-08T07:01:11;12.43;;;7.67;;
12110;SDS011;6119;52.372;8.990;2023-02-08T07:03:59;10.77;;;6.70;;
12110;SDS011;6119;52.372;8.990;2023-02-08T07:06:46;13.80;;;8.43;;
12110;SDS011;6119;52.372;8.990;2023-02-08T07:09:33;9.07;;;6.70;;
12110;SDS011;6119;52.372;8.990;2023-02-08T07:12:20;13.00;;;7.20;;
12110;SDS011;6119;52.372;8.990;2023-02-08T07:15:08;12.50;;;7.67;;
12110;SDS011;6119;52.372;8.990;2023-02-08T07:17:57;44.60;;;22.47;;
12110;SDS011;6119;52.372;8.990;2023-02-08T07:20:44;25.53;;;14.40;;
12110;SDS011;6119;52.372;8.990;2023-02-08T07:23:30;32.70;;;16.20;;
12110;SDS011;6119;52.372;8.990;2023-02-08T07:26:17;23.10;;;13.40;;
12110;SDS011;6119;52.372;8.990;2023-02-08T07:29:03;16.97;;;9.87;;
12110;SDS011;6119;52.372;8.990;2023-02-08T07:31:51;15.37;;;9.07;;
12110;SDS011;6119;52.372;8.990;2023-02-08T07:34:38;12.83;;;8.07;;
12110;SDS011;6119;52.372;8.990;2023-02-08T07:37:25;13.97;;;8.30;;
12110;SDS011;6119;52.372;8.990;2023-02-08T07:40:12;16.50;;;9.03;;
12110;SDS011;6119;52.372;8.990;2023-02-08T07:42:58;17.13;;;9.67;;
12110;SDS011;6119;52.372;8.990;2023-02-08T07:45:44;13.67;;;8.43;;
12110;SDS011;6119;52.372;8.990;2023-02-08T07:48:32;16.03;;;8.83;;
12110;SDS011;6119;52.372;8.990;2023-02-08T07:51:19;15.47;;;9.50;;
12110;SDS011;6119;52.372;8.990;2023-02-08T07:54:06;11.50;;;8.37;;
12110;SDS011;6119;52.372;8.990;2023-02-08T07:56:52;15.37;;;8.57;;
12110;SDS011;6119;52.372;8.990;2023-02-08T07:59:39;16.13;;;9.30;;
12110;SDS011;6119;52.372;8.990;2023-02-08T08:02:25;18.43;;;8.70;;
12110;SDS011;6119;52.372;8.990;2023-02-08T08:05:13;16.30;;;9.20;;
12110;SDS011;6119;52.372;8.990;2023-02-08T08:07:59;19.30;;;9.87;;
12110;SDS011;6119;52.372;8.990;2023-02-08T08:10:46;13.93;;;8.70;;
12110;SDS011;6119;52.372;8.990;2023-02-08T08:13:33;14.50;;;9.20;;
12110;SDS011;6119;52.372;8.990;2023-02-08T08:16:19;16.00;;;9.40;;
12110;SDS011;6119;52.372;8.990;2023-02-08T08:19:06;16.60;;;9.50;;
12110;SDS011;6119;52.372;8.990;2023-02-08T08:21:54;14.43;;;9.00;;
12110;SDS011;6119;52.372;8.990;2023-02-08T08:24:41;14.03;;;8.70;;
12110;SDS011;6119;52.372;8.990;2023-02-08T08:27:27;16.30;;;8.70;;
12110;SDS011;6119;52.372;8.990;2023-02-08T08:30:14;14.40;;;9.10;;
12110;SDS011;6119;52.372;8.990;2023-02-08T08:33:01;12.30;;;8.33;;
12110;SDS011;6119;52.372;8.990;2023-02-08T08:35:48;16.40;;;8.33;;
12110;SDS011;6119;52.372;8.990;2023-02-08T08:38:36;16.57;;;8.43;;
12110;SDS011;6119;52.372;8.990;2023-02-08T08:41:24;15.90;;;8.10;;
12110;SDS011;6119;52.372;8.990;2023-02-08T08:44:12;11.97;;;7.60;;
12110;SDS011;6119;52.372;8.990;2023-02-08T08:46:59;12.07;;;7.97;;
12110;SDS011;6119;52.372;8.990;2023-02-08T08:49:45;14.90;;;8.13;;
12110;SDS011;6119;52.372;8.990;2023-02-08T08:52:32;12.47;;;7.57;;
12110;SDS011;6119;52.372;8.990;2023-02-08T08:55:20;14.97;;;8.03;;
12110;SDS011;6119;52.372;8.990;2023-02-08T08:58:06;12.63;;;8.00;;
12110;SDS011;6119;52.372;8.990;2023-02-08T09:00:54;12.50;;;8.17;;
12110;SDS011;6119;52.372;8.990;2023-02-08T09:03:42;18.33;;;8.50;;
12110;SDS011;6119;52.372;8.990;2023-02-08T09:06:28;16.00;;;8.50;;
12110;SDS011;6119;52.372;8.990;2023-02-08T09:09:15;14.40;;;7.80;;
12110;SDS011;6119;52.372;8.990;2023-02-08T09:12:04;17.87;;;8.10;;
12110;SDS011;6119;52.372;8.990;2023-02-08T09:14:51;11.93;;;7.10;;
12110;SDS011;6119;52.372;8.990;2023-02-08T09:17:37;12.07;;;7.77;;
12110;SDS011;6119;52.372;8.990;2023-02-08T09:20:23;11.00;;;7.37;;
12110;SDS011;6119;52.372;8.990;2023-02-08T09:23:10;12.40;;;7.57;;
12110;SDS011;6119;52.372;8.990;2023-02-08T09:26:00;11.40;;;6.83;;
12110;SDS011;6119;52.372;8.990;2023-02-08T09:28:48;12.03;;;6.73;;
12110;SDS011;6119;52.372;8.990;2023-02-08T09:31:35;8.90;;;6.57;;
12110;SDS011;6119;52.372;8.990;2023-02-08T09:34:23;11.23;;;6.33;;
12110;SDS011;6119;52.372;8.990;2023-02-08T09:37:10;10.27;;;6.07;;
12110;SDS011;6119;52.372;8.990;2023-02-08T09:39:57;10.83;;;6.83;;
12110;SDS011;6119;52.372;8.990;2023-02-08T09:42:45;8.47;;;6.57;;
12110;SDS011;6119;52.372;8.990;2023-02-08T09:45:41;9.47;;;6.30;;
12110;SDS011;6119;52.372;8.990;2023-02-08T09:48:43;7.80;;;5.93;;
12110;SDS011;6119;52.372;8.990;2023-02-08T09:51:32;8.70;;;5.57;;
12110;SDS011;6119;52.372;8.990;2023-02-08T09:54:25;8.03;;;5.37;;
12110;SDS011;6119;52.372;8.990;2023-02-08T09:57:17;8.80;;;5.50;;
12110;SDS011;6119;52.372;8.990;2023-02-08T10:00:09;8.67;;;6.10;;
12110;SDS011;6119;52.372;8.990;2023-02-08T10:03:02;9.97;;;5.27;;
12110;SDS011;6119;52.372;8.990;2023-02-08T10:05:49;10.03;;;5.20;;
12110;SDS011;6119;52.372;8.990;2023-02-08T10:08:36;9.27;;;5.80;;
12110;SDS011;6119;52.372;8.990;2023-02-08T10:11:29;7.53;;;5.23;;
12110;SDS011;6119;52.372;8.990;2023-02-08T10:17:47;6.87;;;5.13;;
12110;SDS011;6119;52.372;8.990;2023-02-08T10:20:55;9.27;;;5.33;;
12110;SDS011;6119;52.372;8.990;2023-02-08T10:24:06;6.30;;;4.03;;
12110;SDS011;6119;52.372;8.990;2023-02-08T10:27:04;4.97;;;3.40;;
12110;SDS011;6119;52.372;8.990;2023-02-08T10:30:01;6.30;;;3.27;;
12110;SDS011;6119;52.372;8.990;2023-02-08T10:33:00;4.07;;;3.00;;
12110;SDS011;6119;52.372;8.990;2023-02-08T10:35:53;3.20;;;2.47;;
12110;SDS011;6119;52.372;8.990;2023-02-08T10:38:40;2.53;;;2.30;;
12110;SDS011;6119;52.372;8.990;2023-02-08T10:41:32;3.63;;;2.33;;
12110;SDS011;6119;52.372;8.990;2023-02-08T10:44:23;3.90;;;2.50;;
12110;SDS011;6119;52.372;8.990;2023-02-08T10:47:16;3.40;;;2.33;;
12110;SDS011;6119;52.372;8.990;2023-02-08T10:50:14;4.10;;;2.77;;
12110;SDS011;6119;52.372;8.990;2023-02-08T10:53:09;3.10;;;2.40;;
12110;SDS011;6119;52.372;8.990;2023-02-08T10:56:00;2.63;;;2.23;;
12110;SDS011;6119;52.372;8.990;2023-02-08T10:58:47;2.67;;;2.27;;
12110;SDS011;6119;52.372;8.990;2023-02-08T11:01:34;5.03;;;2.23;;
12110;SDS011;6119;52.372;8.990;2023-02-08T11:04:21;2.70;;;2.23;;
12110;SDS011;6119;52.372;8.990;2023-02-08T11:07:17;3.33;;;2.40;;
12110;SDS011;6119;52.372;8.990;2023-02-08T11:10:21;3.00;;;2.13;;
12110;SDS011;6119;52.372;8.990;2023-02-08T11:13:14;2.83;;;2.03;;
12110;SDS011;6119;52.372;8.990;2023-02-08T11:16:03;3.30;;;2.47;;
12110;SDS011;6119;52.372;8.990;2023-02-08T11:18:52;4.43;;;2.13;;
12110;SDS011;6119;52.372;8.990;2023-02-08T11:21:41;3.43;;;2.20;;
12110;SDS011;6119;52.372;8.990;2023-02-08T11:24:34;3.80;;;2.23;;
12110;SDS011;6119;52.372;8.990;2023-02-08T11:27:30;2.60;;;1.93;;
12110;SDS011;6119;52.372;8.990;2023-02-08T11:30:20;2.67;;;2.07;;
12110;SDS011;6119;52.372;8.990;2023-02-08T11:33:18;4.97;;;2.13;;
12110;SDS011;6119;52.372;8.990;2023-02-08T11:36:07;2.30;;;1.70;;
12110;SDS011;6119;52.372;8.990;2023-02-08T11:38:59;2.43;;;1.80;;
12110;SDS011;6119;52.372;8.990;2023-02-08T11:41:48;3.17;;;1.70;;
12110;SDS011;6119;52.372;8.990;2023-02-08T11:44:40;3.17;;;2.10;;
12110;SDS011;6119;52.372;8.990;2023-02-08T11:47:29;2.93;;;1.93;;
12110;SDS011;6119;52.372;8.990;2023-02-08T11:50:21;2.00;;;1.80;;
12110;SDS011;6119;52.372;8.990;2023-02-08T11:53:16;3.10;;;2.20;;
12110;SDS011;6119;52.372;8.990;2023-02-08T11:56:15;3.27;;;1.87;;
12110;SDS011;6119;52.372;8.990;2023-02-08T11:59:05;2.43;;;1.80;;
12110;SDS011;6119;52.372;8.990;2023-02-08T12:02:18;2.17;;;1.70;;
12110;SDS011;6119;52.372;8.990;2023-02-08T12:05:15;3.53;;;1.87;;
12110;SDS011;6119;52.372;8.990;2023-02-08T12:08:10;2.93;;;2.03;;
12110;SDS011;6119;52.372;8.990;2023-02-08T12:11:07;2.93;;;2.10;;
12110;SDS011;6119;52.372;8.990;2023-02-08T12:14:11;2.87;;;1.70;;
12110;SDS011;6119;52.372;8.990;2023-02-08T12:17:16;2.67;;;1.97;;
12110;SDS011;6119;52.372;8.990;2023-02-08T12:20:22;3.10;;;1.80;;
12110;SDS011;6119;52.372;8.990;2023-02-08T12:23:23;1.93;;;1.47;;
12110;SDS011;6119;52.372;8.990;2023-02-08T12:26:32;2.50;;;1.90;;
12110;SDS011;6119;52.372;8.990;2023-02-08T12:29:33;2.53;;;1.93;;
12110;SDS011;6119;52.372;8.990;2023-02-08T12:32:47;2.97;;;1.80;;
12110;SDS011;6119;52.372;8.990;2023-02-08T12:35:47;1.90;;;1.60;;
12110;SDS011;6119;52.372;8.990;2023-02-08T12:38:56;2.00;;;1.70;;
12110;SDS011;6119;52.372;8.990;2023-02-08T12:42:16;2.73;;;1.80;;
12110;SDS011;6119;52.372;8.990;2023-02-08T12:48:42;2.90;;;1.90;;
12110;SDS011;6119;52.372;8.990;2023-02-08T12:51:47;4.03;;;2.30;;
12110;SDS011;6119;52.372;8.990;2023-02-08T12:54:41;4.73;;;3.07;;
12110;SDS011;6119;52.372;8.990;2023-02-08T12:57:33;4.67;;;3.20;;
12110;SDS011;6119;52.372;8.990;2023-02-08T13:00:20;4.30;;;2.70;;
12110;SDS011;6119;52.372;8.990;2023-02-08T13:03:11;4.80;;;2.90;;
12110;SDS011;6119;52.372;8.990;2023-02-08T13:06:17;5.50;;;3.33;;
12110;SDS011;6119;52.372;8.990;2023-02-08T13:09:09;4.57;;;2.53;;
12110;SDS011;6119;52.372;8.990;2023-02-08T13:12:03;3.77;;;2.50;;
12110;SDS011;6119;52.372;8.990;2023-02-08T13:14:53;2.43;;;1.80;;
12110;SDS011;6119;52.372;8.990;2023-02-08T13:17:48;2.40;;;1.90;;
12110;SDS011;6119;52.372;8.990;2023-02-08T13:20:39;2.13;;;1.93;;
12110;SDS011;6119;52.372;8.990;2023-02-08T13:23:31;3.13;;;2.20;;
12110;SDS011;6119;52.372;8.990;2023-02-08T13:26:36;2.43;;;2.00;;
12110;SDS011;6119;52.372;8.990;2023-02-08T13:29:24;3.87;;;2.40;;
12110;SDS011;6119;52.372;8.990;2023-02-08T13:32:15;4.40;;;3.20;;
12110;SDS011;6119;52.372;8.990;2023-02-08T13:35:10;5.03;;;3.20;;
12110;SDS011;6119;52.372;8.990;2023-02-08T13:38:02;5.70;;;3.20;;
12110;SDS011;6119;52.372;8.990;2023-02-08T13:41:01;6.57;;;3.63;;
12110;SDS011;6119;52.372;8.990;2023-02-08T13:43:51;5.57;;;3.60;;
12110;SDS011;6119;52.372;8.990;2023-02-08T13:46:43;5.57;;;3.93;;
12110;SDS011;6119;52.372;8.990;2023-02-08T13:49:42;5.23;;;3.70;;
12110;SDS011;6119;52.372;8.990;2023-02-08T13:52:47;5.47;;;3.53;;
12110;SDS011;6119;52.372;8.990;2023-02-08T14:02:12;5.03;;;3.60;;
12110;SDS011;6119;52.372;8.990;2023-02-08T14:08:28;4.83;;;3.30;;
12110;SDS011;6119;52.372;8.990;2023-02-08T14:11:19;4.63;;;3.00;;
12110;SDS011;6119;52.372;8.990;2023-02-08T14:14:18;5.30;;;3.43;;
12110;SDS011;6119;52.372;8.990;2023-02-08T14:17:08;7.67;;;3.63;;
12110;SDS011;6119;52.372;8.990;2023-02-08T14:20:06;3.73;;;2.87;;
12110;SDS011;6119;52.372;8.990;2023-02-08T14:22:53;5.33;;;3.27;;
12110;SDS011;6119;52.372;8.990;2023-02-08T14:25:42;4.80;;;3.20;;
12110;SDS011;6119;52.372;8.990;2023-02-08T14:28:32;7.93;;;3.60;;
12110;SDS011;6119;52.372;8.990;2023-02-08T14:31:23;4.40;;;3.07;;
12110;SDS011;6119;52.372;8.990;2023-02-08T14:34:27;5.10;;;3.57;;
12110;SDS011;6119;52.372;8.990;2023-02-08T14:37:27;4.53;;;3.20;;
12110;SDS011;6119;52.372;8.990;2023-02-08T14:40:31;5.30;;;3.30;;
12110;SDS011;6119;52.372;8.990;2023-02-08T14:43:33;5.63;;;2.93;;
12110;SDS011;6119;52.372;8.990;2023-02-08T14:49:33;3.53;;;2.83;;
12110;SDS011;6119;52.372;8.990;2023-02-08T14:52:23;5.47;;;3.83;;
12110;SDS011;6119;52.372;8.990;2023-02-08T14:55:12;3.50;;;2.80;;
12110;SDS011;6119;52.372;8.990;2023-02-08T14:58:02;5.77;;;3.70;;
12110;SDS011;6119;52.372;8.990;2023-02-08T15:00:52;4.30;;;3.23;;
12110;SDS011;6119;52.372;8.990;2023-02-08T15:03:41;6.27;;;4.00;;
12110;SDS011;6119;52.372;8.990;2023-02-08T15:06:51;5.83;;;4.00;;
12110;SDS011;6119;52.372;8.990;2023-02-08T15:09:57;6.33;;;3.97;;
12110;SDS011;6119;52.372;8.990;2023-02-08T15:12:49;5.27;;;3.87;;
12110;SDS011;6119;52.372;8.990;2023-02-08T15:15:38;5.80;;;3.70;;
12110;SDS011;6119;52.372;8.990;2023-02-08T15:18:27;4.97;;;3.40;;
12110;SDS011;6119;52.372;8.990;2023-02-08T15:21:18;7.47;;;3.83;;
12110;SDS011;6119;52.372;8.990;2023-02-08T15:24:12;4.83;;;3.73;;
12110;SDS011;6119;52.372;8.990;2023-02-08T15:27:00;9.27;;;4.43;;
12110;SDS011;6119;52.372;8.990;2023-02-08T15:29:46;6.10;;;4.10;;
12110;SDS011;6119;52.372;8.990;2023-02-08T15:32:33;6.73;;;4.30;;
12110;SDS011;6119;52.372;8.990;2023-02-08T15:35:20;6.93;;;4.40;;
12110;SDS011;6119;52.372;8.990;2023-02-08T15:38:12;8.50;;;4.33;;
12110;SDS011;6119;52.372;8.990;2023-02-08T15:41:03;7.17;;;5.00;;
12110;SDS011;6119;52.372;8.990;2023-02-08T15:43:58;7.13;;;4.73;;
12110;SDS011;6119;52.372;8.990;2023-02-08T15:46:47;6.80;;;4.00;;
12110;SDS011;6119;52.372;8.990;2023-02-08T15:49:39;8.57;;;5.17;;
12110;SDS011;6119;52.372;8.990;2023-02-08T15:52:29;8.90;;;5.30;;
12110;SDS011;6119;52.372;8.990;2023-02-08T15:55:19;10.07;;;4.93;;
12110;SDS011;6119;52.372;8.990;2023-02-08T15:58:06;7.90;;;5.00;;
12110;SDS011;6119;52.372;8.990;2023-02-08T16:01:00;10.67;;;4.90;;
12110;SDS011;6119;52.372;8.990;2023-02-08T16:03:49;6.60;;;4.67;;
12110;SDS011;6119;52.372;8.990;2023-02-08T16:06:39;7.87;;;4.87;;
12110;SDS011;6119;52.372;8.990;2023-02-08T16:09:32;9.23;;;5.00;;
12110;SDS011;6119;52.372;8.990;2023-02-08T16:12:21;6.80;;;4.70;;
12110;SDS011;6119;52.372;8.990;2023-02-08T16:18:29;11.50;;;6.00;;
12110;SDS011;6119;52.372;8.990;2023-02-08T16:21:27;14.93;;;7.07;;
12110;SDS011;6119;52.372;8.990;2023-02-08T16:24:18;13.07;;;6.53;;
12110;SDS011;6119;52.372;8.990;2023-02-08T16:27:14;14.57;;;7.83;;
12110;SDS011;6119;52.372;8.990;2023-02-08T16:30:13;10.80;;;7.27;;
12110;SDS011;6119;52.372;8.990;2023-02-08T16:33:06;11.03;;;5.83;;
12110;SDS011;6119;52.372;8.990;2023-02-08T16:35:53;12.00;;;7.10;;
12110;SDS011;6119;52.372;8.990;2023-02-08T16:38:45;10.57;;;6.47;;
12110;SDS011;6119;52.372;8.990;2023-02-08T16:42:18;12.30;;;7.03;;
12110;SDS011;6119;52.372;8.990;2023-02-08T16:45:17;13.37;;;7.80;;
12110;SDS011;6119;52.372;8.990;2023-02-08T16:48:05;12.73;;;7.77;;
12110;SDS011;6119;52.372;8.990;2023-02-08T16:51:16;12.93;;;8.37;;
12110;SDS011;6119;52.372;8.990;2023-02-08T16:54:06;13.23;;;8.03;;
12110;SDS011;6119;52.372;8.990;2023-02-08T16:56:56;14.03;;;7.83;;
12110;SDS011;6119;52.372;8.990;2023-02-08T16:59:44;15.23;;;7.30;;
12110;SDS011;6119;52.372;8.990;2023-02-08T17:02:32;13.00;;;7.33;;
12110;SDS011;6119;52.372;8.990;2023-02-08T17:05:19;14.77;;;8.10;;
12110;SDS011;6119;52.372;8.990;2023-02-08T17:08:10;14.93;;;8.53;;
12110;SDS011;6119;52.372;8.990;2023-02-08T17:10:59;15.90;;;7.60;;
12110;SDS011;6119;52.372;8.990;2023-02-08T17:13:46;13.50;;;8.20;;
12110;SDS011;6119;52.372;8.990;2023-02-08T17:16:33;13.27;;;8.23;;
12110;SDS011;6119;52.372;8.990;2023-02-08T17:19:22;13.83;;;8.73;;
12110;SDS011;6119;52.372;8.990;2023-02-08T17:22:08;13.40;;;7.40;;
12110;SDS011;6119;52.372;8.990;2023-02-08T17:24:55;13.47;;;8.23;;
12110;SDS011;6119;52.372;8.990;2023-02-08T17:27:41;17.70;;;8.83;;
12110;SDS011;6119;52.372;8.990;2023-02-08T17:30:28;19.13;;;9.27;;
12110;SDS011;6119;52.372;8.990;2023-02-08T17:33:16;14.80;;;8.80;;
12110;SDS011;6119;52.372;8.990;2023-02-08T17:36:05;14.23;;;8.43;;
12110;SDS011;6119;52.372;8.990;2023-02-08T17:38:52;13.43;;;8.27;;
12110;SDS011;6119;52.372;8.990;2023-02-08T17:41:38;16.03;;;8.53;;
12110;SDS011;6119;52.372;8.990;2023-02-08T17:44:25;18.57;;;8.80;;
12110;SDS011;6119;52.372;8.990;2023-02-08T17:47:12;15.67;;;8.67;;
12110;SDS011;6119;52.372;8.990;2023-02-08T17:49:58;13.07;;;9.03;;
12110;SDS011;6119;52.372;8.990;2023-02-08T17:52:47;21.90;;;10.40;;